Time;durP1;ratioP1;P1;durP2;ratioP2;P2;SDS_P1;SDS_P2;PMS_P1;PMS_P2;Temp;Humidity;BMP_temperature;BMP_pressure;BME280_temperature;BME280_humidity;BME280_pressure;Samples;Min_cycle;Max_cycle;Signal;HPM_P1;HPM_P2
2022/05/21 00:01:22;;;;;;;8.20;1.45;;;10.60;99.90;;;;;;4934434;29;20020;-77
2022/05/21 00:03:48;;;;;;;10.35;3.28;;;10.50;99.90;;;;;;4934888;29;20047;-76
2022/05/21 00:06:14;;;;;;;15.57;1.67;;;10.50;99.90;;;;;;4934813;29;20061;-76
2022/05/21 00:08:39;;;;;;;8.82;1.90;;;10.50;99.90;;;;;;4934281;29;20095;-73
2022/05/21 00:11:05;;;;;;;8.50;1.48;;;10.50;99.90;;;;;;4933254;29;20071;-76
2022/05/21 00:13:31;;;;;;;6.72;1.73;;;10.40;99.90;;;;;;4917296;29;20016;-77
2022/05/21 00:15:56;;;;;;;5.03;1.52;;;10.40;99.90;;;;;;4934539;29;20052;-74
2022/05/21 00:18:22;;;;;;;11.18;1.85;;;10.30;99.90;;;;;;4916789;29;20031;-76
2022/05/21 00:20:48;;;;;;;8.38;1.45;;;10.20;99.90;;;;;;4934356;29;20172;-77
2022/05/21 00:23:30;;;;;;;5.22;1.50;;;10.20;99.90;;;;;;4933898;29;20012;-76
2022/05/21 00:25:59;;;;;;;10.35;2.25;;;10.10;99.90;;;;;;4932976;29;20020;-74
2022/05/21 00:28:25;;;;;;;8.05;1.60;;;10.10;99.90;;;;;;4933792;29;20489;-76
2022/05/21 00:30:51;;;;;;;14.38;2.38;;;10.00;99.90;;;;;;4934863;29;20035;-77
2022/05/21 00:33:18;;;;;;;5.15;1.30;;;10.00;99.90;;;;;;4934164;29;20028;-77
2022/05/21 00:35:44;;;;;;;8.30;2.15;;;10.10;99.90;;;;;;4934767;29;20028;-76
2022/05/21 00:38:10;;;;;;;6.50;1.70;;;10.00;99.90;;;;;;4933408;29;20051;-77
2022/05/21 00:40:37;;;;;;;12.15;1.90;;;10.00;99.90;;;;;;4934270;29;20039;-74
2022/05/21 00:43:04;;;;;;;5.20;1.17;;;9.90;99.90;;;;;;4935505;29;20091;-76
2022/05/21 00:45:30;;;;;;;4.78;1.20;;;10.00;99.90;;;;;;4939247;29;20020;-77
2022/05/21 00:47:57;;;;;;;2.03;1.45;;;9.90;99.90;;;;;;4934457;29;20425;-77
2022/05/21 00:50:27;;;;;;;5.75;1.90;;;9.90;99.90;;;;;;4916532;29;20016;-77
2022/05/21 00:52:53;;;;;;;6.75;1.90;;;9.80;99.90;;;;;;4933902;29;20031;-77
2022/05/21 00:55:26;;;;;;;4.93;1.33;;;9.80;99.90;;;;;;4934223;29;20087;-77
2022/05/21 01:00:43;;;;;;;6.65;1.63;;;9.90;99.90;;;;;;4933454;29;20098;-76
2022/05/21 01:03:12;;;;;;;4.47;1.70;;;9.80;99.90;;;;;;4933154;29;20019;-77
2022/05/21 01:05:39;;;;;;;2.97;1.25;;;9.70;99.90;;;;;;4933869;29;20032;-77
2022/05/21 01:08:05;;;;;;;4.88;1.40;;;9.60;99.90;;;;;;4916447;29;20051;-76
2022/05/21 01:10:36;;;;;;;6.65;1.50;;;9.50;99.90;;;;;;4933455;29;20087;-76
2022/05/21 01:13:04;;;;;;;5.38;1.40;;;9.50;99.90;;;;;;4933279;29;20038;-77
2022/05/21 01:15:34;;;;;;;11.35;1.90;;;9.50;99.90;;;;;;4932145;29;20051;-77
2022/05/21 01:18:00;;;;;;;8.80;1.70;;;9.60;99.90;;;;;;4932688;29;20039;-77
2022/05/21 01:20:46;;;;;;;3.67;1.30;;;9.50;99.90;;;;;;4933598;29;20422;-76
2022/05/21 01:23:13;;;;;;;12.73;2.13;;;9.50;99.90;;;;;;4933363;29;20027;-77
2022/05/21 01:25:39;;;;;;;10.43;2.38;;;9.70;99.90;;;;;;4939056;29;20024;-76
2022/05/21 01:28:12;;;;;;;8.05;2.03;;;9.90;99.90;;;;;;4915845;29;20049;-76
2022/05/21 01:30:43;;;;;;;4.22;1.38;;;9.90;99.90;;;;;;4939684;29;20031;-76
2022/05/21 01:33:11;;;;;;;5.47;1.80;;;9.80;99.90;;;;;;4932669;29;20473;-75
2022/05/21 01:35:39;;;;;;;1.85;1.00;;;9.80;99.90;;;;;;4933450;29;20055;-76
2022/05/21 01:38:07;;;;;;;1.55;1.10;;;9.70;99.90;;;;;;4933280;29;20111;-76
2022/05/21 01:40:33;;;;;;;3.45;1.40;;;9.70;99.90;;;;;;4933091;29;20024;-76
2022/05/21 01:45:45;;;;;;;2.80;1.52;;;9.60;99.90;;;;;;4933669;29;20043;-76
2022/05/21 01:48:11;;;;;;;6.50;1.60;;;9.50;99.90;;;;;;4933027;29;20098;-76
2022/05/21 01:50:38;;;;;;;5.47;1.38;;;9.40;99.90;;;;;;4915563;29;20039;-77
2022/05/21 01:53:04;;;;;;;7.18;1.73;;;9.30;99.90;;;;;;4932747;29;20031;-76
2022/05/21 01:55:31;;;;;;;3.13;1.25;;;9.20;99.90;;;;;;4938894;29;20094;-76
2022/05/21 01:57:56;;;;;;;5.15;1.38;;;9.20;99.90;;;;;;4933088;29;20079;-77
2022/05/21 02:00:22;;;;;;;2.50;1.20;;;9.30;99.90;;;;;;4933678;29;20047;-77
2022/05/21 02:02:48;;;;;;;7.43;1.50;;;9.30;99.90;;;;;;4932941;29;20032;-76
2022/05/21 02:05:13;;;;;;;4.68;1.48;;;9.30;99.90;;;;;;4932676;29;20019;-76
2022/05/21 02:07:40;;;;;;;4.35;1.40;;;9.30;99.90;;;;;;4932496;29;20115;-76
2022/05/21 02:10:06;;;;;;;6.95;1.98;;;9.30;99.90;;;;;;4933427;29;20087;-76
2022/05/21 02:12:33;;;;;;;3.40;1.48;;;9.40;99.90;;;;;;4932606;29;20043;-76
2022/05/21 02:14:59;;;;;;;3.85;1.25;;;9.40;99.90;;;;;;4933113;29;20050;-75
2022/05/21 02:17:25;;;;;;;4.03;1.73;;;9.40;99.90;;;;;;4932334;29;20562;-76
2022/05/21 02:19:50;;;;;;;6.80;1.58;;;9.40;99.90;;;;;;4915579;29;20047;-75
2022/05/21 02:22:17;;;;;;;7.95;1.35;;;9.30;99.90;;;;;;4932316;29;20631;-75
2022/05/21 02:24:43;;;;;;;3.00;0.98;;;9.30;99.90;;;;;;4916056;29;20063;-75
2022/05/21 02:27:13;;;;;;;6.88;1.70;;;9.20;99.90;;;;;;4933518;29;20518;-76
2022/05/21 02:29:40;;;;;;;4.95;1.63;;;9.20;99.90;;;;;;4943422;29;20028;-75
2022/05/21 02:32:07;;;;;;;6.03;1.42;;;9.30;99.90;;;;;;4935896;29;20098;-75
2022/05/21 02:34:33;;;;;;;6.50;1.25;;;9.30;99.90;;;;;;4926197;29;20548;-76
2022/05/21 02:39:43;;;;;;;7.80;1.13;;;9.20;99.90;;;;;;4936565;29;20030;-75
2022/05/21 02:42:43;;;;;;;3.92;1.02;;;9.10;99.90;;;;;;4935293;29;20087;-76
2022/05/21 02:44:55;;;;;;;5.97;1.00;;;9.10;99.90;;;;;;4935600;29;20046;-75
2022/05/21 02:47:22;;;;;;;2.35;1.13;;;9.00;99.90;;;;;;4934753;29;20083;-75
2022/05/21 02:49:48;;;;;;;3.97;1.60;;;9.00;99.90;;;;;;4935758;29;20038;-75
2022/05/21 02:52:15;;;;;;;3.55;1.38;;;9.00;99.90;;;;;;4918467;29;20028;-76
2022/05/21 02:54:41;;;;;;;3.47;1.05;;;9.00;99.90;;;;;;4935403;29;20020;-75
2022/05/21 02:57:09;;;;;;;5.32;1.35;;;8.90;99.90;;;;;;4935010;29;20027;-76
2022/05/21 02:59:36;;;;;;;3.10;1.33;;;9.00;99.90;;;;;;4936106;29;20103;-75
2022/05/21 03:02:03;;;;;;;2.85;1.50;;;9.00;99.90;;;;;;4935845;29;20042;-75
2022/05/21 03:04:28;;;;;;;2.53;1.08;;;9.00;99.90;;;;;;4941033;29;20094;-75
2022/05/21 03:06:56;;;;;;;3.35;1.10;;;8.90;99.90;;;;;;4934666;29;20433;-76
2022/05/21 03:12:07;;;;;;;2.83;1.38;;;8.80;99.90;;;;;;4934780;29;20118;-76
2022/05/21 03:14:33;;;;;;;2.47;1.05;;;8.90;99.90;;;;;;4918294;29;20083;-75
2022/05/21 03:17:01;;;;;;;4.10;1.20;;;8.90;99.90;;;;;;4918081;29;20031;-76
2022/05/21 03:19:29;;;;;;;5.20;1.27;;;8.80;99.90;;;;;;4935227;29;20659;-75
2022/05/21 03:21:55;;;;;;;2.95;1.05;;;8.90;99.90;;;;;;4917254;29;20036;-75
2022/05/21 03:24:21;;;;;;;2.03;0.60;;;8.90;99.90;;;;;;4935385;29;20027;-76
2022/05/21 03:26:47;;;;;;;1.92;1.10;;;8.90;99.90;;;;;;4935228;29;20039;-75
2022/05/21 03:29:13;;;;;;;1.40;1.08;;;8.90;99.90;;;;;;4935683;29;20032;-75
2022/05/21 03:31:38;;;;;;;3.88;1.23;;;8.90;99.90;;;;;;4934403;29;20043;-75
2022/05/21 03:34:05;;;;;;;3.63;1.00;;;8.80;99.90;;;;;;4935323;29;20062;-75
2022/05/21 03:36:31;;;;;;;3.20;0.90;;;8.80;99.90;;;;;;4935017;29;20073;-75
2022/05/21 03:38:57;;;;;;;1.88;1.05;;;8.80;99.90;;;;;;4917478;29;20059;-75
2022/05/21 03:41:23;;;;;;;2.63;0.95;;;8.80;99.90;;;;;;4915998;29;20036;-75
2022/05/21 03:43:50;;;;;;;6.32;1.20;;;8.80;99.90;;;;;;4917906;29;20035;-75
2022/05/21 03:46:15;;;;;;;8.40;1.38;;;8.80;99.90;;;;;;4917356;29;20377;-75
2022/05/21 03:48:41;;;;;;;2.45;0.90;;;8.70;99.90;;;;;;4934621;29;20543;-75
2022/05/21 03:51:07;;;;;;;4.60;0.80;;;8.70;99.90;;;;;;4934626;29;20032;-75
2022/05/21 03:53:33;;;;;;;4.15;1.10;;;8.50;99.90;;;;;;4933973;29;20020;-75
2022/05/21 03:55:59;;;;;;;3.83;1.10;;;8.50;99.90;;;;;;4933539;29;20110;-75
2022/05/21 03:58:25;;;;;;;3.70;0.90;;;8.50;99.90;;;;;;4934395;29;20473;-75
2022/05/21 04:00:51;;;;;;;1.38;0.70;;;8.50;99.90;;;;;;4938577;29;20385;-75
2022/05/21 04:03:17;;;;;;;3.67;1.00;;;8.50;99.90;;;;;;4917064;29;20023;-75
2022/05/21 04:05:43;;;;;;;2.28;0.90;;;8.50;99.90;;;;;;4933149;29;20532;-75
2022/05/21 04:08:09;;;;;;;3.00;1.13;;;8.60;99.90;;;;;;4934106;29;20030;-75
2022/05/21 04:10:36;;;;;;;3.05;1.05;;;8.40;99.90;;;;;;4941574;29;20024;-75
2022/05/21 04:13:01;;;;;;;3.67;0.98;;;8.40;99.90;;;;;;4917124;29;20669;-75
2022/05/21 04:15:27;;;;;;;5.07;0.88;;;8.40;99.90;;;;;;4935000;29;20524;-76
2022/05/21 04:17:54;;;;;;;2.95;1.00;;;8.40;99.90;;;;;;4934865;29;20028;-75
2022/05/21 04:20:24;;;;;;;1.65;0.98;;;8.40;99.90;;;;;;4917171;29;20123;-75
2022/05/21 04:22:50;;;;;;;4.03;0.75;;;8.40;99.90;;;;;;4934091;29;20024;-75
2022/05/21 04:25:16;;;;;;;1.67;0.90;;;8.50;99.90;;;;;;4917323;29;20388;-75
2022/05/21 04:27:42;;;;;;;4.35;1.05;;;8.50;99.90;;;;;;4934105;29;20110;-75
2022/05/21 04:30:14;;;;;;;2.55;1.00;;;8.50;99.90;;;;;;4936992;29;20028;-75
2022/05/21 04:32:40;;;;;;;4.82;1.77;;;8.50;99.90;;;;;;4933766;29;20039;-75
2022/05/21 04:35:07;;;;;;;3.17;1.75;;;8.50;99.90;;;;;;4940556;29;20031;-75
2022/05/21 04:37:36;;;;;;;4.30;1.00;;;8.40;99.90;;;;;;4933196;29;20038;-75
2022/05/21 04:40:05;;;;;;;1.88;1.23;;;8.40;99.90;;;;;;4934367;29;20401;-76
2022/05/21 04:42:30;;;;;;;1.60;0.95;;;8.40;99.90;;;;;;4916764;29;20115;-75
2022/05/21 04:44:56;;;;;;;6.20;1.35;;;8.40;99.90;;;;;;4933441;29;20110;-75
2022/05/21 04:47:22;;;;;;;6.57;1.48;;;8.50;99.90;;;;;;4932910;29;20512;-75
2022/05/21 04:49:47;;;;;;;1.33;1.23;;;8.50;99.90;;;;;;4933854;29;20148;-75
2022/05/21 04:52:13;;;;;;;2.17;1.20;;;8.40;99.90;;;;;;4933489;29;20032;-75
2022/05/21 04:54:39;;;;;;;1.33;1.10;;;8.40;99.90;;;;;;4934039;29;20354;-75
2022/05/21 04:57:05;;;;;;;8.20;1.98;;;8.50;99.90;;;;;;4933460;29;20024;-75
2022/05/21 04:59:31;;;;;;;8.55;1.35;;;8.50;99.90;;;;;;4933311;29;20031;-75
2022/05/21 05:01:58;;;;;;;2.17;1.55;;;8.60;99.90;;;;;;4933647;29;20036;-75
2022/05/21 05:04:24;;;;;;;3.63;1.30;;;8.70;99.90;;;;;;4938950;29;20011;-75
2022/05/21 05:06:50;;;;;;;2.85;1.70;;;8.80;99.90;;;;;;4933599;29;20074;-75
2022/05/21 05:09:19;;;;;;;1.40;1.30;;;9.00;99.90;;;;;;4933648;29;20458;-75
2022/05/21 05:11:46;;;;;;;6.28;1.45;;;9.00;99.90;;;;;;4933156;29;20039;-75
2022/05/21 05:14:11;;;;;;;1.58;1.45;;;9.10;99.90;;;;;;4933935;29;20019;-76
2022/05/21 05:16:37;;;;;;;4.82;1.08;;;9.20;99.90;;;;;;4933056;29;20079;-75
2022/05/21 05:19:03;;;;;;;2.97;1.30;;;9.30;99.90;;;;;;4933584;29;20035;-75
2022/05/21 05:21:29;;;;;;;1.70;0.85;;;9.30;99.90;;;;;;4933223;29;20031;-75
2022/05/21 05:23:54;;;;;;;2.08;1.33;;;9.50;99.90;;;;;;4933624;29;20023;-75
2022/05/21 05:26:22;;;;;;;3.42;1.10;;;9.70;99.90;;;;;;4932509;29;20397;-75
2022/05/21 05:28:48;;;;;;;3.35;1.30;;;9.80;99.90;;;;;;4916115;29;20032;-76
2022/05/21 05:31:14;;;;;;;4.30;1.35;;;9.90;99.90;;;;;;4933191;29;20062;-75
2022/05/21 05:33:40;;;;;;;5.97;0.85;;;10.00;99.90;;;;;;4933235;29;20640;-76
2022/05/21 05:36:06;;;;;;;0.68;0.68;;;10.20;99.90;;;;;;4938788;29;20110;-76
2022/05/21 05:38:32;;;;;;;7.43;1.25;;;10.20;99.90;;;;;;4933082;29;20027;-76
2022/05/21 05:40:58;;;;;;;5.20;1.20;;;10.40;99.90;;;;;;4933417;29;20028;-76
2022/05/21 05:43:24;;;;;;;3.47;1.30;;;10.40;99.90;;;;;;4932756;29;20114;-76
2022/05/21 05:45:53;;;;;;;1.80;1.23;;;10.50;99.90;;;;;;4933304;29;20023;-76
2022/05/21 05:48:19;;;;;;;7.13;1.60;;;10.60;99.90;;;;;;4932584;29;20111;-76
2022/05/21 05:50:45;;;;;;;3.75;1.20;;;10.70;99.90;;;;;;4932011;29;20376;-75
2022/05/21 05:53:11;;;;;;;1.50;1.10;;;10.80;99.90;;;;;;4932843;29;20477;-76
2022/05/21 05:55:41;;;;;;;5.85;1.38;;;10.90;99.90;;;;;;4933449;29;20027;-76
2022/05/21 06:00:55;;;;;;;5.45;1.33;;;11.20;99.90;;;;;;4932904;29;20030;-75
2022/05/21 06:03:21;;;;;;;9.63;1.63;;;11.30;99.90;;;;;;4936296;29;20115;-75
2022/05/21 06:05:51;;;;;;;4.95;1.33;;;11.40;99.90;;;;;;4941133;29;20046;-75
2022/05/21 06:08:17;;;;;;;7.68;1.63;;;11.60;99.90;;;;;;4935946;29;20105;-75
2022/05/21 06:10:45;;;;;;;8.05;1.85;;;11.90;99.90;;;;;;4936926;29;20020;-75
2022/05/21 06:13:13;;;;;;;2.70;1.27;;;12.20;99.90;;;;;;4918648;29;20404;-76
2022/05/21 06:15:38;;;;;;;6.80;1.58;;;12.40;99.90;;;;;;4935828;29;20030;-75
2022/05/21 06:18:16;;;;;;;4.60;1.38;;;12.60;99.90;;;;;;4919375;29;20024;-75
2022/05/21 06:20:43;;;;;;;5.63;1.20;;;13.00;99.90;;;;;;4936668;29;20028;-75
2022/05/21 06:23:10;;;;;;;9.15;1.48;;;13.30;99.90;;;;;;4942323;29;20030;-76
2022/05/21 06:25:36;;;;;;;7.63;1.40;;;13.50;99.90;;;;;;4946689;29;20373;-76
2022/05/21 06:28:04;;;;;;;8.35;1.30;;;13.70;99.90;;;;;;4938861;29;20031;-75
2022/05/21 06:30:32;;;;;;;5.57;1.35;;;13.80;99.90;;;;;;4928647;29;20054;-76
2022/05/21 06:32:59;;;;;;;4.60;1.13;;;13.70;99.90;;;;;;4950029;29;20054;-76
2022/05/21 06:35:27;;;;;;;6.22;0.88;;;13.60;99.90;;;;;;4941929;29;20031;-75
2022/05/21 06:37:53;;;;;;;5.00;2.10;;;13.50;99.90;;;;;;4936111;29;20389;-76
2022/05/21 06:40:19;;;;;;;4.43;1.00;;;13.30;99.90;;;;;;4939718;29;20020;-77
2022/05/21 06:42:46;;;;;;;3.03;1.15;;;13.40;99.90;;;;;;4935492;29;20054;-77
2022/05/21 06:45:12;;;;;;;5.10;1.73;;;13.50;99.90;;;;;;4941808;29;20106;-77
2022/05/21 06:47:38;;;;;;;7.40;1.30;;;13.80;99.90;;;;;;4935334;29;20118;-76
2022/05/21 06:50:05;;;;;;;5.97;0.90;;;14.20;99.90;;;;;;4935467;29;20027;-79
2022/05/21 06:52:32;;;;;;;4.07;1.13;;;14.20;99.90;;;;;;4938421;29;20038;-76
2022/05/21 06:54:58;;;;;;;6.50;0.90;;;14.30;99.90;;;;;;4948252;29;20035;-77
2022/05/21 06:57:28;;;;;;;3.55;1.17;;;14.40;99.90;;;;;;4938562;29;20028;-78
2022/05/21 06:59:55;;;;;;;5.90;1.20;;;14.60;99.90;;;;;;4935978;29;20023;-77
2022/05/21 07:02:21;;;;;;;4.03;0.90;;;14.60;99.90;;;;;;4935743;29;20426;-78
2022/05/21 07:07:45;;;;;;;8.18;1.25;;;14.70;99.90;;;;;;4926676;29;20511;-78
2022/05/21 07:10:17;;;;;;;5.75;1.08;;;14.80;99.90;;;;;;4919016;29;20532;-77
2022/05/21 07:12:43;;;;;;;7.32;1.38;;;14.70;99.90;;;;;;4935088;29;20042;-78
2022/05/21 07:15:09;;;;;;;4.45;0.93;;;14.70;99.90;;;;;;4934446;29;20298;-78
2022/05/21 07:17:35;;;;;;;5.13;1.25;;;14.60;99.90;;;;;;4934932;29;20036;-78
2022/05/21 07:20:11;;;;;;;5.97;0.95;;;14.60;99.90;;;;;;4935485;29;20035;-78
2022/05/21 07:22:42;;;;;;;7.13;1.10;;;14.70;99.90;;;;;;4935276;29;20176;-78
2022/05/21 07:25:09;;;;;;;5.47;1.48;;;14.70;99.90;;;;;;4935824;29;20024;-78
2022/05/21 07:27:34;;;;;;;5.03;1.33;;;14.80;99.90;;;;;;4935402;29;20397;-79
2022/05/21 07:30:00;;;;;;;3.80;0.80;;;14.90;99.90;;;;;;4935646;29;20031;-78
2022/05/21 07:32:28;;;;;;;1.75;0.82;;;15.00;99.90;;;;;;4934963;29;20028;-79
2022/05/21 07:34:59;;;;;;;6.65;1.17;;;15.20;99.90;;;;;;4943549;29;20031;-78
2022/05/21 07:37:26;;;;;;;3.30;1.20;;;15.40;99.90;;;;;;4937325;29;20059;-78
2022/05/21 07:39:51;;;;;;;9.10;1.75;;;15.50;99.90;;;;;;4935632;29;20107;-78
2022/05/21 07:42:17;;;;;;;5.93;0.90;;;15.70;99.90;;;;;;4941337;29;20091;-79
2022/05/21 07:44:43;;;;;;;4.75;0.63;;;15.70;99.90;;;;;;4935472;29;20047;-77
2022/05/21 07:47:08;;;;;;;1.80;0.68;;;15.80;99.90;;;;;;4935025;29;20020;-78
2022/05/21 07:49:34;;;;;;;4.28;0.90;;;15.80;99.90;;;;;;4935579;29;20028;-78
2022/05/21 07:52:00;;;;;;;4.38;0.65;;;15.80;99.90;;;;;;4923107;29;20076;-79
2022/05/21 07:54:27;;;;;;;5.97;0.88;;;15.70;99.90;;;;;;4935079;29;20111;-78
2022/05/21 07:56:53;;;;;;;5.47;0.85;;;15.80;99.90;;;;;;4934069;29;20481;-78
2022/05/21 07:59:19;;;;;;;5.38;1.00;;;15.80;99.90;;;;;;4935236;29;20059;-78
2022/05/21 08:01:45;;;;;;;5.93;1.15;;;15.90;99.90;;;;;;4934344;29;20119;-78
2022/05/21 08:04:11;;;;;;;5.13;0.98;;;16.00;99.90;;;;;;4937289;29;20030;-79
2022/05/21 08:06:36;;;;;;;1.52;0.57;;;16.20;99.90;;;;;;4934929;29;20031;-78
2022/05/21 08:09:03;;;;;;;3.47;0.95;;;16.30;99.90;;;;;;4934468;29;20028;-78
2022/05/21 08:11:29;;;;;;;3.63;0.98;;;16.30;99.90;;;;;;4934585;29;20036;-78
2022/05/21 08:13:54;;;;;;;5.25;1.08;;;16.30;99.90;;;;;;4916958;29;20023;-78
2022/05/21 08:16:21;;;;;;;10.57;1.33;;;16.40;99.90;;;;;;4934234;29;20055;-78
2022/05/21 08:18:47;;;;;;;4.78;1.33;;;16.40;99.90;;;;;;4940939;29;20169;-78
2022/05/21 08:21:13;;;;;;;2.67;1.50;;;16.50;99.90;;;;;;4933489;29;20046;-79
2022/05/21 08:29:07;;;;;;;6.40;0.90;;;17.20;99.90;;;;;;4934339;29;20102;-79
2022/05/21 08:31:33;;;;;;;2.50;0.70;;;17.60;99.90;;;;;;4940429;29;20110;-78
2022/05/21 08:34:00;;;;;;;4.00;0.70;;;17.90;99.90;;;;;;4935731;29;20092;-78
2022/05/21 08:36:26;;;;;;;3.80;0.80;;;17.90;99.90;;;;;;4936146;29;20036;-78
2022/05/21 08:38:52;;;;;;;6.15;0.70;;;18.20;99.50;;;;;;4933916;29;20551;-79
2022/05/21 08:41:27;;;;;;;4.47;0.93;;;18.70;99.80;;;;;;4933750;29;20499;-77
2022/05/21 08:44:05;;;;;;;3.55;0.60;;;19.30;95.30;;;;;;4934090;29;20030;-77
2022/05/21 08:46:40;;;;;;;2.75;0.40;;;19.80;93.90;;;;;;4936327;29;20050;-78
2022/05/21 08:49:30;;;;;;;6.97;0.77;;;20.30;90.30;;;;;;4934581;29;20546;-78
2022/05/21 08:52:24;;;;;;;3.63;0.80;;;20.70;87.10;;;;;;4933311;29;20540;-78
2022/05/21 08:54:52;;;;;;;4.88;0.55;;;21.20;80.20;;;;;;4940433;29;20039;-79
2022/05/21 08:57:21;;;;;;;4.18;1.10;;;21.30;80.50;;;;;;4933178;29;20023;-79
2022/05/21 08:59:54;;;;;;;3.92;0.60;;;21.80;73.80;;;;;;4934323;29;20388;-78
2022/05/21 09:02:30;;;;;;;2.92;0.80;;;22.30;74.80;;;;;;4915978;29;20023;-78
2022/05/21 09:04:56;;;;;;;4.30;0.77;;;22.20;68.70;;;;;;4937248;29;20020;-78
2022/05/21 09:07:27;;;;;;;5.28;0.80;;;21.90;67.30;;;;;;4933740;29;20034;-78
2022/05/21 09:10:01;;;;;;;3.08;0.70;;;21.70;69.70;;;;;;4934173;29;20031;-79
2022/05/21 09:12:40;;;;;;;3.78;1.13;;;21.50;67.00;;;;;;4933374;29;20119;-79
2022/05/21 09:15:08;;;;;;;3.22;0.45;;;21.10;69.70;;;;;;4934401;29;20024;-77
2022/05/21 09:17:42;;;;;;;4.25;0.75;;;21.40;68.80;;;;;;4933617;29;20362;-78
2022/05/21 09:20:13;;;;;;;6.68;0.82;;;21.40;70.60;;;;;;4933594;29;20026;-78
2022/05/21 09:22:39;;;;;;;4.72;0.65;;;21.40;69.70;;;;;;4915846;29;20059;-78
2022/05/21 09:25:18;;;;;;;5.80;0.73;;;21.30;69.50;;;;;;4933718;29;20066;-78
2022/05/21 09:27:44;;;;;;;4.32;0.68;;;21.00;71.70;;;;;;4933257;29;20027;-77
2022/05/21 09:30:28;;;;;;;1.70;0.45;;;20.80;69.80;;;;;;4933959;29;20086;-79
2022/05/21 09:32:57;;;;;;;2.97;0.95;;;20.80;74.80;;;;;;4932770;29;20036;-79
2022/05/21 09:35:47;;;;;;;5.22;1.65;;;21.10;73.20;;;;;;4933606;29;20059;-78
2022/05/21 09:38:19;;;;;;;1.85;0.63;;;21.60;70.10;;;;;;4915669;29;20437;-78
2022/05/21 09:40:45;;;;;;;5.28;0.52;;;21.80;68.50;;;;;;4933617;29;20020;-78
2022/05/21 09:46:31;;;;;;;6.53;0.90;;;21.50;70.70;;;;;;4932800;29;20026;-77
2022/05/21 09:49:16;;;;;;;6.53;0.77;;;21.20;68.50;;;;;;4933878;29;20051;-78
2022/05/21 09:51:51;;;;;;;6.10;1.10;;;21.50;70.60;;;;;;4915981;29;20122;-78
2022/05/21 09:54:23;;;;;;;5.03;0.98;;;21.60;67.70;;;;;;4916211;29;20361;-78
2022/05/21 09:56:54;;;;;;;6.88;0.90;;;21.80;67.40;;;;;;4933310;29;20066;-79
2022/05/21 09:59:23;;;;;;;2.03;0.40;;;22.30;66.80;;;;;;4915696;29;20024;-78
2022/05/21 10:01:55;;;;;;;4.57;0.68;;;23.10;64.50;;;;;;4934537;29;20270;-78
2022/05/21 10:04:43;;;;;;;3.33;0.65;;;23.70;60.50;;;;;;4918923;29;20499;-78
2022/05/21 10:13:14;;;;;;;3.30;0.43;;;25.10;59.70;;;;;;4933020;29;20055;-79
2022/05/21 10:15:51;;;;;;;4.05;0.85;;;26.30;55.50;;;;;;4933005;29;20019;-79
2022/05/21 10:18:26;;;;;;;4.13;1.15;;;26.20;53.60;;;;;;4915268;29;20047;-79
2022/05/21 10:20:56;;;;;;;2.67;0.40;;;26.20;51.70;;;;;;4933194;29;20034;-79
2022/05/21 10:23:33;;;;;;;4.30;0.82;;;26.20;51.40;;;;;;4932952;29;20524;-78
2022/05/21 10:26:08;;;;;;;4.40;1.02;;;26.30;50.40;;;;;;4933362;29;20032;-79
2022/05/21 10:29:06;;;;;;;2.67;0.60;;;26.20;48.70;;;;;;4933161;29;20023;-78
2022/05/21 10:32:00;;;;;;;2.30;0.60;;;26.10;52.10;;;;;;4933111;29;20032;-79
2022/05/21 10:35:10;;;;;;;6.13;1.10;;;26.40;48.60;;;;;;4936199;29;20071;-79
2022/05/21 10:37:54;;;;;;;1.58;0.40;;;26.20;51.40;;;;;;4932380;29;20027;-79
2022/05/21 10:40:37;;;;;;;3.30;0.77;;;26.50;48.40;;;;;;4933141;29;20032;-79
2022/05/21 10:43:36;;;;;;;4.28;0.60;;;26.50;45.80;;;;;;4932723;29;20020;-78
2022/05/21 10:46:22;;;;;;;1.85;0.55;;;26.70;46.20;;;;;;4932760;29;20071;-79
2022/05/21 10:49:12;;;;;;;4.55;0.60;;;26.60;42.40;;;;;;4934904;29;20046;-79
2022/05/21 10:52:16;;;;;;;3.20;0.70;;;26.70;42.70;;;;;;4934865;29;20043;-80
2022/05/21 10:55:13;;;;;;;3.33;0.57;;;26.40;41.70;;;;;;4899884;29;20441;-79
2022/05/21 10:58:00;;;;;;;4.43;1.00;;;27.00;43.50;;;;;;4935499;29;20473;-79
2022/05/21 11:00:59;;;;;;;4.25;0.52;;;27.70;45.80;;;;;;4919147;29;20362;-79
2022/05/21 11:03:58;;;;;;;1.90;0.60;;;27.90;44.70;;;;;;4935282;29;20019;-79
2022/05/21 11:06:52;;;;;;;2.25;0.30;;;28.60;48.30;;;;;;4934328;29;20050;-79
2022/05/21 11:09:35;;;;;;;6.80;0.63;;;29.40;41.70;;;;;;4935793;29;20023;-79
2022/05/21 11:12:17;;;;;;;2.95;0.38;;;30.10;43.80;;;;;;4935502;29;20031;-80
2022/05/21 11:14:54;;;;;;;2.60;0.35;;;29.10;39.50;;;;;;4935666;29;20012;-80
2022/05/21 11:17:35;;;;;;;3.10;0.40;;;28.70;43.80;;;;;;4935348;29;20504;-79
2022/05/21 11:20:16;;;;;;;4.28;0.68;;;28.40;41.70;;;;;;4936013;29;20122;-80
2022/05/21 11:22:46;;;;;;;2.70;0.63;;;28.40;43.70;;;;;;4918405;29;20043;-79
2022/05/21 11:25:20;;;;;;;5.15;2.10;;;28.80;45.00;;;;;;4935781;29;20027;-80
2022/05/21 11:27:58;;;;;;;3.17;0.90;;;29.50;46.30;;;;;;4935268;29;20035;-79
2022/05/21 11:30:25;;;;;;;3.78;0.63;;;30.50;46.70;;;;;;4935210;29;20028;-77
2022/05/21 11:38:41;;;;;;;;;;;30.60;47.00;;;;;;4935311;29;20111;-80
2022/05/21 11:41:30;;;;;;;5.32;0.77;;;29.40;46.20;;;;;;4934332;29;19907;-79
2022/05/21 11:47:13;;;;;;;2.80;0.93;;;29.70;44.70;;;;;;4934877;29;20507;-79
2022/05/21 11:49:44;;;;;;;5.80;1.10;;;30.00;44.00;;;;;;4935794;29;20038;-79
2022/05/21 11:52:32;;;;;;;6.25;1.15;;;30.70;45.00;;;;;;4934932;29;20043;-80
2022/05/21 11:54:57;;;;;;;6.22;0.82;;;30.50;41.60;;;;;;4934588;29;20110;-80
2022/05/21 11:57:49;;;;;;;3.08;1.10;;;30.80;42.00;;;;;;4934135;29;20103;-79
2022/05/21 12:00:17;;;;;;;1.48;0.68;;;32.00;43.00;;;;;;4933961;29;20020;-79
2022/05/21 12:02:58;;;;;;;3.13;0.63;;;32.50;40.30;;;;;;4934478;29;20491;-79
2022/05/21 12:05:37;;;;;;;4.55;0.50;;;30.80;40.40;;;;;;4935179;29;20055;-79
2022/05/21 12:08:22;;;;;;;2.83;0.63;;;30.10;43.20;;;;;;4917486;29;20034;-79
2022/05/21 12:11:15;;;;;;;5.63;1.08;;;30.20;44.30;;;;;;4935263;29;20111;-80
2022/05/21 12:14:06;;;;;;;4.07;0.80;;;31.20;45.00;;;;;;4934688;29;20032;-79
2022/05/21 12:16:32;;;;;;;3.83;0.75;;;31.80;42.30;;;;;;4934423;29;20103;-79
2022/05/21 12:19:02;;;;;;;7.32;1.48;;;32.10;44.80;;;;;;4934433;29;20059;-80
2022/05/21 12:23:56;;;;;;;6.43;1.00;;;32.50;39.50;;;;;;4941449;29;20482;-79
2022/05/21 12:26:51;;;;;;;3.15;0.68;;;32.60;41.80;;;;;;4934417;29;20070;-80
2022/05/21 12:29:20;;;;;;;6.85;1.33;;;32.10;40.90;;;;;;4886205;29;20038;-79
2022/05/21 12:31:50;;;;;;;4.00;0.70;;;31.40;44.60;;;;;;4933761;29;20044;-79
2022/05/21 12:34:33;;;;;;;7.22;1.25;;;31.20;42.00;;;;;;4935239;29;20548;-79
2022/05/21 12:37:23;;;;;;;5.05;1.02;;;31.90;42.50;;;;;;4933079;29;20028;-80
2022/05/21 12:40:06;;;;;;;8.13;1.48;;;32.40;41.00;;;;;;4941088;29;20093;-79
2022/05/21 12:42:51;;;;;;;4.13;0.82;;;32.50;40.00;;;;;;4933772;29;20028;-80
2022/05/21 12:45:34;;;;;;;1.27;0.60;;;32.50;41.20;;;;;;4933474;29;20115;-79
2022/05/21 12:48:11;;;;;;;6.13;1.23;;;33.70;39.60;;;;;;4933690;29;20055;-79
2022/05/21 12:50:52;;;;;;;2.85;0.70;;;33.10;39.70;;;;;;4934173;29;20024;-79
2022/05/21 12:53:33;;;;;;;2.65;0.90;;;33.40;40.00;;;;;;4933439;29;20417;-79
2022/05/21 12:56:04;;;;;;;4.90;0.93;;;34.00;37.80;;;;;;4933833;29;20039;-79
2022/05/21 12:58:30;;;;;;;3.28;0.98;;;34.10;38.60;;;;;;4939984;29;20083;-79
2022/05/21 13:00:57;;;;;;;3.38;0.65;;;33.70;38.90;;;;;;4934434;29;20028;-80
2022/05/21 13:03:24;;;;;;;5.30;0.75;;;34.30;39.90;;;;;;4933665;29;20024;-79
2022/05/21 13:06:12;;;;;;;4.55;0.75;;;34.50;39.70;;;;;;4933763;29;20063;-80
2022/05/21 13:08:40;;;;;;;2.85;0.90;;;32.90;39.00;;;;;;4934170;29;20020;-80
2022/05/21 13:11:18;;;;;;;7.97;1.20;;;32.30;38.40;;;;;;4933263;29;20552;-79
2022/05/21 13:13:53;;;;;;;4.63;1.15;;;31.40;40.10;;;;;;4933160;29;20028;-80
2022/05/21 13:16:19;;;;;;;4.20;0.82;;;31.40;41.10;;;;;;4933573;29;20299;-79
2022/05/21 13:18:51;;;;;;;7.75;1.00;;;30.60;41.60;;;;;;4933650;29;20028;-79
2022/05/21 13:21:35;;;;;;;4.95;1.05;;;30.00;42.10;;;;;;4932294;29;20055;-79
2022/05/21 13:24:23;;;;;;;5.40;0.80;;;30.90;43.20;;;;;;4933841;29;20067;-80
2022/05/21 13:27:15;;;;;;;4.53;0.70;;;31.20;41.40;;;;;;4933358;29;20070;-79
2022/05/21 13:29:42;;;;;;;4.65;0.82;;;31.60;41.30;;;;;;4933874;29;20055;-79
2022/05/21 13:32:21;;;;;;;4.95;0.68;;;30.90;40.80;;;;;;4933487;29;20417;-79
2022/05/21 13:34:47;;;;;;;7.90;1.05;;;30.80;43.10;;;;;;4933911;29;20034;-79
2022/05/21 13:37:13;;;;;;;4.75;0.90;;;30.10;42.60;;;;;;4932838;29;20099;-79
2022/05/21 13:39:39;;;;;;;4.93;1.70;;;30.30;43.20;;;;;;4933790;29;20083;-80
2022/05/21 13:42:15;;;;;;;5.97;1.67;;;30.40;43.30;;;;;;4931457;29;20481;-80
2022/05/21 13:44:44;;;;;;;4.43;0.95;;;29.90;42.40;;;;;;4933384;29;20023;-79
2022/05/21 13:47:28;;;;;;;2.65;0.73;;;30.00;44.00;;;;;;4943334;29;21203;-79
2022/05/21 14:49:29;;;;;;;5.50;0.90;;;28.10;42.40;;;;;;5533970;23;20054;-77
2022/05/21 14:54:41;;;;;;;2.97;0.60;;;27.10;43.10;;;;;;4977126;28;20034;-78